createdAt,value
2016-10-06T00:28:24.335Z,21.53
2016-10-06T00:29:34.676Z,21.45
2016-10-06T00:30:45.030Z,21.45
2016-10-06T00:31:55.372Z,21.38
2016-10-06T00:33:05.725Z,21.38
2016-10-06T01:28:25.351Z,21.35
2016-10-06T01:29:35.695Z,21.29
2016-10-06T01:30:46.041Z,21.38
2016-10-06T01:31:56.389Z,21.28
2016-10-06T02:28:13.134Z,21.29
2016-10-06T02:29:23.484Z,21.32
2016-10-06T02:30:33.832Z,21.26
2016-10-06T02:31:44.181Z,21.32
2016-10-06T02:32:54.535Z,21.28
2016-10-06T02:34:04.885Z,21.26
2016-10-06T02:35:15.239Z,21.32
2016-10-06T02:36:25.583Z,21.28
2016-10-06T02:37:35.939Z,21.35
2016-10-06T02:38:46.298Z,21.32
2016-10-06T02:39:56.652Z,21.29
2016-10-06T02:41:07.004Z,21.25
2016-10-06T02:42:17.347Z,21.26
2016-10-06T02:43:27.700Z,21.26
2016-10-06T02:44:38.059Z,21.23
2016-10-06T02:45:48.408Z,21.22
2016-10-06T02:46:58.763Z,21.2
2016-10-06T02:48:09.122Z,21.25
2016-10-06T02:49:19.472Z,21.23
2016-10-06T02:50:29.836Z,21.26
2016-10-06T02:51:40.190Z,21.25
2016-10-06T02:52:50.551Z,21.28
2016-10-06T02:54:00.906Z,21.23
2016-10-06T02:55:11.264Z,21.22
2016-10-06T02:56:21.618Z,21.23
2016-10-06T02:57:31.976Z,21.26
2016-10-06T02:58:42.341Z,21.23
2016-10-06T02:59:52.688Z,21.2
2016-10-06T03:01:03.042Z,21.19
2016-10-06T03:28:27.347Z,21.25
2016-10-06T03:29:37.695Z,21.2
2016-10-06T03:30:48.041Z,21.14
2016-10-06T03:31:58.388Z,21.17
2016-10-06T03:33:08.739Z,21.2
2016-10-06T03:34:19.093Z,21.14
2016-10-06T03:35:29.446Z,21.2
2016-10-06T03:36:39.795Z,21.15
2016-10-06T03:37:50.147Z,21.22
2016-10-06T03:39:00.506Z,21.2
2016-10-06T03:40:10.860Z,21.2
2016-10-06T03:41:21.217Z,21.17
2016-10-06T03:42:31.568Z,21.17
2016-10-06T03:43:41.918Z,21.14
2016-10-06T03:44:52.276Z,21.15
2016-10-06T03:46:02.631Z,21.17
2016-10-06T03:47:12.978Z,21.14
2016-10-06T03:48:23.337Z,20.29
2016-10-06T03:49:33.694Z,19.39
2016-10-06T03:50:44.048Z,18.92
2016-10-06T03:51:54.411Z,18.51
2016-10-06T03:53:04.765Z,18.3
2016-10-06T03:54:15.124Z,18.85
2016-10-06T03:55:25.480Z,19.32
2016-10-06T03:56:35.837Z,19.67
2016-10-06T04:28:32.034Z,21.13
2016-10-06T04:29:42.379Z,21.13
2016-10-06T04:30:52.730Z,21.15
2016-10-06T04:32:03.082Z,21.2
2016-10-06T04:33:13.428Z,21.17
2016-10-06T04:34:23.781Z,21.2
2016-10-06T04:35:34.136Z,21.17
2016-10-06T04:36:44.488Z,21.22
2016-10-06T04:37:54.844Z,21.25
2016-10-06T04:39:05.195Z,21.2
2016-10-06T04:40:15.549Z,21.3
2016-10-06T04:41:25.906Z,21.22
2016-10-06T04:42:36.260Z,21.29
2016-10-06T04:43:46.623Z,21.28
2016-10-06T04:44:56.975Z,21.35
2016-10-06T04:46:07.339Z,21.3
2016-10-06T04:47:17.692Z,21.25
2016-10-06T04:48:28.049Z,21.3
2016-10-06T04:49:38.408Z,21.26
2016-10-06T04:50:48.770Z,21.29
2016-10-06T04:51:59.119Z,21.33
2016-10-06T04:53:09.475Z,21.28
2016-10-06T04:54:19.833Z,21.32
2016-10-06T04:55:30.188Z,21.26
2016-10-06T04:56:40.548Z,21.3
2016-10-06T04:57:50.914Z,21.33
2016-10-06T04:59:01.264Z,21.28
2016-10-06T05:00:11.621Z,21.41
2016-10-06T05:28:10.600Z,21.44
2016-10-06T05:29:20.963Z,21.41
2016-10-06T05:30:31.311Z,21.44
2016-10-06T05:31:41.662Z,21.43
2016-10-06T05:32:52.011Z,21.4
2016-10-06T05:34:02.362Z,21.43
2016-10-06T05:35:12.708Z,21.43
2016-10-06T05:36:23.066Z,21.38
2016-10-06T05:37:33.421Z,21.44
2016-10-06T05:38:43.768Z,21.48
2016-10-06T05:39:54.126Z,21.44
2016-10-06T05:41:04.485Z,21.37
2016-10-06T05:42:14.835Z,21.43
2016-10-06T05:43:25.194Z,21.38
2016-10-06T05:44:35.554Z,21.37
2016-10-06T06:28:02.688Z,21.56
2016-10-06T06:29:13.038Z,21.51
2016-10-06T06:30:23.390Z,21.51
2016-10-06T06:31:33.737Z,21.54
2016-10-06T06:32:44.089Z,21.48
2016-10-06T06:33:54.441Z,21.5
2016-10-06T06:35:04.793Z,21.51
2016-10-06T06:36:15.144Z,21.43
2016-10-06T06:37:25.497Z,21.47
2016-10-06T06:38:35.845Z,21.56
2016-10-06T06:39:46.203Z,21.56
2016-10-06T06:40:56.546Z,21.59
2016-10-06T06:42:06.907Z,21.53
2016-10-06T06:43:17.262Z,21.48
2016-10-06T06:44:27.607Z,21.54
2016-10-06T06:45:37.955Z,21.53
2016-10-06T06:46:48.307Z,21.56
2016-10-06T06:47:58.653Z,21.45
2016-10-06T06:49:09.011Z,21.58
2016-10-06T06:50:19.356Z,21.53
2016-10-06T06:51:29.707Z,21.47
2016-10-06T06:52:40.053Z,21.53
2016-10-06T06:53:50.405Z,21.51
2016-10-06T06:55:00.755Z,21.58
2016-10-06T06:56:11.121Z,21.54
2016-10-06T06:57:21.471Z,21.53
2016-10-06T06:58:31.828Z,21.53
2016-10-06T06:59:42.171Z,21.62
2016-10-06T07:00:52.538Z,21.59
2016-10-06T07:28:02.770Z,21.54
2016-10-06T07:29:13.122Z,21.53
2016-10-06T07:30:23.471Z,21.56
2016-10-06T07:31:33.819Z,21.53
2016-10-06T07:32:44.171Z,21.51
2016-10-06T07:33:54.524Z,21.56
2016-10-06T07:35:04.868Z,21.51
2016-10-06T07:36:15.219Z,21.53
2016-10-06T07:37:25.575Z,21.48
2016-10-06T07:38:35.935Z,21.5
2016-10-06T07:39:46.286Z,21.56
2016-10-06T07:40:56.642Z,21.51
2016-10-06T07:42:07.002Z,21.47
2016-10-06T07:43:17.359Z,21.48
2016-10-06T07:44:27.723Z,21.5
2016-10-06T07:45:38.074Z,21.51
2016-10-06T07:46:48.429Z,21.51
2016-10-06T07:47:58.782Z,21.6
2016-10-06T07:49:09.122Z,21.48
2016-10-06T07:50:19.491Z,21.54
2016-10-06T07:51:29.837Z,21.54
2016-10-06T07:52:40.206Z,21.47
2016-10-06T08:27:52.085Z,21.62
2016-10-06T08:29:02.437Z,21.59
2016-10-06T08:30:12.790Z,21.63
2016-10-06T08:31:23.138Z,21.51
2016-10-06T08:32:33.491Z,21.53
2016-10-06T08:33:43.846Z,21.63
2016-10-06T08:34:54.197Z,21.63
2016-10-06T08:36:04.551Z,21.68
2016-10-06T08:37:14.899Z,21.62
2016-10-06T08:38:25.254Z,21.58
2016-10-06T08:39:35.609Z,21.62
2016-10-06T08:40:45.962Z,21.65
2016-10-06T08:41:56.316Z,21.65
2016-10-06T08:43:06.675Z,21.59
2016-10-06T08:44:17.035Z,21.5
2016-10-06T08:45:27.387Z,21.53
2016-10-06T09:27:52.174Z,21.69
2016-10-06T09:29:02.532Z,21.66
2016-10-06T09:30:12.879Z,21.66
2016-10-06T09:31:23.229Z,21.65
2016-10-06T09:32:33.581Z,21.59
2016-10-06T09:33:43.932Z,21.65
2016-10-06T09:34:54.289Z,21.66
2016-10-06T09:36:04.638Z,21.62
2016-10-06T09:37:14.986Z,21.56
2016-10-06T09:38:25.335Z,21.62
2016-10-06T10:27:44.260Z,21.66
2016-10-06T11:27:31.441Z,21.66
2016-10-06T11:28:41.787Z,21.7
2016-10-06T11:29:52.144Z,21.74
2016-10-06T12:27:59.468Z,21.74
2016-10-06T12:29:09.818Z,21.72
2016-10-06T12:30:20.168Z,21.7
2016-10-06T12:31:30.515Z,21.74
2016-10-06T12:32:40.871Z,21.78
2016-10-06T12:33:51.227Z,21.77
2016-10-06T12:35:01.573Z,21.69
2016-10-06T12:36:11.922Z,21.75
2016-10-06T12:37:22.271Z,21.7
2016-10-06T12:38:32.623Z,21.72
2016-10-06T12:39:42.981Z,21.7
2016-10-06T12:40:53.338Z,21.74
2016-10-06T12:42:03.687Z,21.72
2016-10-06T12:43:14.031Z,21.74
2016-10-06T12:44:24.383Z,21.65
2016-10-06T12:45:34.727Z,21.69
2016-10-06T12:46:45.081Z,21.72
2016-10-06T12:47:55.458Z,21.72
2016-10-06T12:49:05.810Z,21.72
2016-10-06T12:50:16.176Z,21.66
2016-10-06T12:51:26.524Z,21.7
2016-10-06T12:52:36.885Z,21.65
2016-10-06T12:53:47.253Z,21.66
2016-10-06T13:28:04.481Z,21.65
2016-10-06T13:29:14.823Z,21.66
2016-10-06T13:30:25.174Z,21.65
2016-10-06T13:31:35.521Z,21.68
2016-10-06T13:32:45.869Z,21.66
2016-10-06T13:33:56.217Z,21.66
2016-10-06T13:35:06.567Z,21.69
2016-10-06T13:36:16.921Z,21.65
2016-10-06T13:37:27.270Z,21.65
2016-10-06T13:38:37.628Z,21.62
2016-10-06T13:39:47.988Z,21.65
2016-10-06T13:40:58.345Z,21.68
2016-10-06T13:42:08.703Z,21.65
2016-10-06T13:43:19.058Z,21.65
2016-10-06T13:44:29.411Z,21.66
2016-10-06T13:45:39.835Z,21.66
2016-10-06T13:46:50.195Z,21.65
2016-10-06T13:48:00.566Z,21.7
2016-10-06T13:49:10.911Z,21.69
2016-10-06T13:50:21.271Z,21.69
2016-10-06T13:51:31.625Z,21.66
2016-10-06T13:52:41.986Z,21.65
2016-10-06T13:53:52.343Z,21.69
2016-10-06T14:28:03.304Z,21.59
2016-10-06T14:29:13.657Z,21.59
2016-10-06T14:30:24.006Z,21.66
2016-10-06T14:31:34.357Z,21.65
2016-10-06T14:32:44.710Z,21.62
2016-10-06T14:33:55.064Z,21.58
2016-10-06T14:35:05.419Z,21.72
2016-10-06T14:36:15.772Z,21.68
2016-10-06T14:37:26.126Z,21.62
2016-10-06T14:38:36.479Z,21.65
2016-10-06T14:39:46.834Z,21.69
2016-10-06T14:40:57.190Z,21.66
2016-10-06T14:42:07.536Z,21.69
2016-10-06T14:43:17.891Z,21.66
2016-10-06T14:44:28.253Z,21.6
2016-10-06T14:45:38.611Z,21.66
2016-10-06T14:46:48.960Z,21.66
2016-10-06T14:47:59.319Z,21.68
2016-10-06T14:49:09.672Z,21.65
2016-10-06T14:50:20.032Z,21.65
2016-10-06T14:51:30.391Z,21.62
2016-10-06T14:52:40.747Z,21.58
2016-10-06T14:53:51.105Z,21.65
2016-10-06T14:55:01.461Z,21.66
2016-10-06T14:56:11.817Z,21.62
2016-10-06T14:57:22.178Z,21.6
2016-10-06T14:58:32.540Z,21.62
2016-10-06T14:59:42.896Z,21.69
2016-10-06T15:00:53.249Z,21.69
2016-10-06T15:02:03.605Z,21.7
2016-10-06T15:03:13.966Z,21.68
2016-10-06T15:27:59.937Z,21.33
2016-10-06T16:28:02.937Z,21.29
2016-10-06T16:29:13.291Z,21.3
2016-10-06T16:30:23.645Z,21.33
2016-10-06T16:31:33.996Z,21.44
2016-10-06T16:32:44.347Z,21.45
2016-10-06T17:27:58.651Z,21.6
2016-10-06T18:28:24.525Z,21.5
2016-10-06T18:29:34.871Z,21.58
2016-10-06T18:30:45.273Z,21.59
2016-10-06T18:31:55.622Z,21.65
2016-10-06T18:33:05.973Z,21.65
2016-10-06T18:34:16.324Z,21.69
2016-10-06T18:35:26.678Z,21.75
2016-10-06T18:36:37.031Z,21.68
2016-10-06T18:37:47.459Z,21.77
2016-10-06T18:38:57.831Z,21.7
2016-10-06T18:40:08.192Z,21.77
2016-10-06T18:41:18.540Z,21.78
2016-10-06T18:42:28.896Z,21.69
2016-10-06T18:43:39.254Z,21.81
2016-10-06T18:44:49.638Z,21.74
2016-10-06T18:45:59.992Z,21.8
2016-10-06T18:47:10.423Z,21.89
2016-10-06T18:48:21.740Z,21.85
2016-10-06T18:49:32.109Z,21.91
2016-10-06T19:28:35.357Z,21.94
2016-10-06T19:29:45.760Z,22
2016-10-06T19:30:56.107Z,22
2016-10-06T19:32:06.459Z,22
2016-10-06T20:28:40.958Z,22.18
2016-10-06T20:29:51.326Z,22.07
2016-10-06T20:31:01.665Z,22.1
2016-10-06T21:28:41.054Z,22.06
2016-10-06T21:29:51.403Z,22.08
2016-10-06T21:31:01.751Z,22.16
2016-10-06T21:32:12.100Z,22.12
2016-10-06T21:33:22.450Z,22.18
2016-10-06T21:34:32.803Z,22.07
2016-10-06T21:35:43.156Z,22.03
2016-10-06T21:36:53.500Z,22.04
2016-10-06T21:38:03.853Z,22.08
2016-10-06T21:39:14.208Z,22.03
2016-10-06T21:40:24.566Z,22.07
2016-10-06T21:41:34.926Z,21.99
2016-10-06T21:42:45.281Z,22.04
2016-10-06T21:43:55.639Z,21.96
2016-10-06T21:45:05.996Z,22.01
2016-10-06T21:46:16.337Z,22.03
2016-10-06T21:47:26.702Z,21.96
2016-10-06T21:48:37.060Z,21.97
2016-10-06T21:49:47.417Z,21.99
2016-10-06T21:50:57.766Z,22
2016-10-06T21:52:08.132Z,21.99
2016-10-06T21:53:18.493Z,21.97
2016-10-06T21:54:28.846Z,21.99
2016-10-06T21:55:39.205Z,21.97
2016-10-06T21:56:49.566Z,21.97
2016-10-06T21:57:59.925Z,21.94
2016-10-06T21:59:10.286Z,21.97
2016-10-06T22:00:20.637Z,21.91
2016-10-06T22:28:37.132Z,21.84
2016-10-06T22:29:47.486Z,21.83
2016-10-06T22:30:57.839Z,21.8
2016-10-06T22:32:08.192Z,21.8
2016-10-06T22:33:18.534Z,21.78
2016-10-06T22:34:28.875Z,21.77
2016-10-06T22:35:39.222Z,21.78
2016-10-06T22:36:49.567Z,21.75
2016-10-06T22:37:59.919Z,21.81
2016-10-06T22:39:10.272Z,21.83
2016-10-06T22:40:20.621Z,21.72
2016-10-06T22:41:30.977Z,21.75
2016-10-06T22:42:41.332Z,21.74
2016-10-06T22:43:51.685Z,21.74
2016-10-06T22:45:02.040Z,21.7
2016-10-06T22:46:12.385Z,21.77
2016-10-06T22:47:22.743Z,21.78
2016-10-06T22:48:33.098Z,21.69
2016-10-06T22:49:43.451Z,21.7
2016-10-06T22:50:53.800Z,21.69
2016-10-06T22:52:04.160Z,21.69
2016-10-06T23:28:25.539Z,21.63
2016-10-06T23:29:35.889Z,21.63
2016-10-06T23:30:46.241Z,21.62
2016-10-06T23:31:56.591Z,21.59
2016-10-06T23:33:06.945Z,21.48
2016-10-06T23:34:17.308Z,21.58
2016-10-06T23:35:27.659Z,21.51
2016-10-06T23:36:38.018Z,21.53
